Time;durP1;ratioP1;P1;durP2;ratioP2;P2;SDS_P1;SDS_P2;PMS_P1;PMS_P2;Temp;Humidity;BMP_temperature;BMP_pressure;BME280_temperature;BME280_humidity;BME280_pressure;Samples;Min_cycle;Max_cycle;Signal;HPM_P1;HPM_P2
2022/04/22 00:00:08;;;;;;;;;;;13.30;64.60;;;;;;5075876;28;19927;-69
2022/04/22 00:02:34;;;;;;;;;;;13.30;64.70;;;;;;5076204;28;19920;-69
2022/04/22 00:05:00;;;;;;;;;;;13.20;64.90;;;;;;5081100;28;19916;-69
2022/04/22 00:07:28;;;;;;;;;;;13.20;64.70;;;;;;5067687;28;20005;-69
2022/04/22 00:09:54;;;;;;;;;;;13.10;65.10;;;;;;5076862;28;20011;-69
2022/04/22 00:12:19;;;;;;;;;;;13.10;64.80;;;;;;5073854;28;19912;-69
2022/04/22 00:14:45;;;;;;;;;;;13.10;64.90;;;;;;5084040;28;20308;-69
2022/04/22 00:17:10;;;;;;;;;;;13.10;65.30;;;;;;5075973;28;19948;-69
2022/04/22 00:19:36;;;;;;;;;;;13.10;65.30;;;;;;5080447;28;20546;-69
2022/04/22 00:22:01;;;;;;;;;;;13.00;65.10;;;;;;5082714;28;19947;-69
2022/04/22 00:24:27;;;;;;;;;;;13.00;65.30;;;;;;5081163;28;19996;-69
2022/04/22 00:26:52;;;;;;;;;;;13.00;65.40;;;;;;5072824;28;20030;-69
2022/04/22 00:29:18;;;;;;;;;;;13.00;65.40;;;;;;5079932;28;19919;-69
2022/04/22 00:31:43;;;;;;;;;;;12.90;65.50;;;;;;5075136;28;19978;-69
2022/04/22 00:34:09;;;;;;;;;;;12.90;65.80;;;;;;5071628;28;20361;-69
2022/04/22 00:36:34;;;;;;;;;;;12.90;65.40;;;;;;5077458;28;19920;-69
2022/04/22 00:39:01;;;;;;;;;;;12.90;65.60;;;;;;5077992;28;20372;-69
2022/04/22 00:41:27;;;;;;;;;;;12.80;65.60;;;;;;5077875;28;20006;-69
2022/04/22 00:43:53;;;;;;;;;;;12.90;66.10;;;;;;5072272;28;20011;-69
2022/04/22 00:46:19;;;;;;;;;;;12.80;66.30;;;;;;5075603;28;19923;-69
2022/04/22 00:48:44;;;;;;;;;;;12.80;66.40;;;;;;5078969;28;19916;-69
2022/04/22 00:51:10;;;;;;;;;;;12.80;66.20;;;;;;5078881;28;19923;-69
2022/04/22 00:53:37;;;;;;;;;;;12.70;66.30;;;;;;5068492;28;19919;-69
2022/04/22 00:56:04;;;;;;;;;;;12.70;67.10;;;;;;5075229;28;19934;-69
2022/04/22 00:58:29;;;;;;;;;;;12.70;66.60;;;;;;5078716;28;20019;-69
2022/04/22 01:00:55;;;;;;;;;;;12.70;66.60;;;;;;5078498;28;20007;-69
2022/04/22 01:03:20;;;;;;;;;;;12.60;66.70;;;;;;5079312;28;19923;-69
2022/04/22 01:11:15;;;;;;;;;;;12.60;67.10;;;;;;5081000;28;20120;-69
2022/04/22 01:13:40;;;;;;;;;;;12.60;67.20;;;;;;5082515;28;20002;-69
2022/04/22 01:16:06;;;;;;;;;;;12.60;67.00;;;;;;5077190;28;19961;-69
2022/04/22 01:18:31;;;;;;;;;;;12.50;66.90;;;;;;5082961;28;19912;-69
2022/04/22 01:21:01;;;;;;;;;;;12.50;67.00;;;;;;5083142;28;19916;-69
2022/04/22 01:23:26;;;;;;;;;;;12.50;67.30;;;;;;5079951;27;19988;-69
2022/04/22 01:25:53;;;;;;;;;;;12.50;67.30;;;;;;5072256;28;19912;-69
2022/04/22 01:28:19;;;;;;;;;;;12.50;67.30;;;;;;5079693;28;19916;-69
2022/04/22 01:30:45;;;;;;;;;;;12.40;67.60;;;;;;5078864;28;20000;-69
2022/04/22 01:33:10;;;;;;;;;;;12.40;67.60;;;;;;5090467;28;20283;-69
2022/04/22 01:35:36;;;;;;;;;;;12.40;67.30;;;;;;5074247;28;19912;-69
2022/04/22 01:38:01;;;;;;;;;;;12.40;67.80;;;;;;5083050;28;20334;-69
2022/04/22 01:40:27;;;;;;;;;;;12.30;67.70;;;;;;5079696;27;20026;-69
2022/04/22 01:42:53;;;;;;;;;;;12.30;67.70;;;;;;5079341;28;19912;-69
2022/04/22 01:45:19;;;;;;;;;;;12.30;67.60;;;;;;5075416;28;19918;-69
2022/04/22 01:47:44;;;;;;;;;;;12.30;67.70;;;;;;5085105;28;20381;-69
2022/04/22 01:50:10;;;;;;;;;;;12.30;67.80;;;;;;5082143;28;19947;-69
2022/04/22 01:52:40;;;;;;;;;;;12.30;67.70;;;;;;5075638;28;20604;-69
2022/04/22 01:55:06;;;;;;;;;;;12.30;67.90;;;;;;5078197;28;19919;-69
2022/04/22 01:57:32;;;;;;;;;;;12.30;68.10;;;;;;5081838;28;19916;-69
2022/04/22 01:59:59;;;;;;;;;;;12.20;68.00;;;;;;5073275;28;19958;-69
2022/04/22 02:02:24;;;;;;;;;;;12.20;68.10;;;;;;5072529;28;19980;-69
2022/04/22 02:04:50;;;;;;;;;;;12.20;68.70;;;;;;5082797;28;20536;-69
2022/04/22 02:07:15;;;;;;;;;;;12.20;68.40;;;;;;5082024;28;19911;-69
2022/04/22 02:09:41;;;;;;;;;;;12.20;68.10;;;;;;5077891;28;20292;-69
2022/04/22 02:12:07;;;;;;;;;;;12.20;68.40;;;;;;5073699;28;19912;-69
2022/04/22 02:14:33;;;;;;;;;;;12.10;68.10;;;;;;5088560;28;19939;-69
2022/04/22 02:16:59;;;;;;;;;;;12.10;68.50;;;;;;5072844;28;19943;-69
2022/04/22 02:19:25;;;;;;;;;;;12.10;68.50;;;;;;5075179;28;20273;-69
2022/04/22 02:21:51;;;;;;;;;;;12.10;68.50;;;;;;5073640;28;20456;-69
2022/04/22 02:24:16;;;;;;;;;;;12.10;68.60;;;;;;5088048;28;19915;-69
2022/04/22 02:29:26;;;;;;;;;;;12.00;68.80;;;;;;5083099;28;20248;-69
2022/04/22 02:31:52;;;;;;;;;;;12.00;68.70;;;;;;5081864;28;19916;-69
2022/04/22 02:34:21;;;;;;;;;;;12.00;69.00;;;;;;5085731;28;19912;-69
2022/04/22 02:36:48;;;;;;;;;;;12.00;69.10;;;;;;5071412;28;19912;-69
2022/04/22 02:39:14;;;;;;;;;;;12.00;69.10;;;;;;5080192;28;19927;-69
2022/04/22 02:47:07;;;;;;;;;;;11.90;69.40;;;;;;5075696;28;19922;-69
2022/04/22 02:49:33;;;;;;;;;;;11.90;69.40;;;;;;5079247;28;20424;-69
2022/04/22 02:51:58;;;;;;;;;;;11.90;69.10;;;;;;5070445;28;20004;-69
2022/04/22 02:54:24;;;;;;;;;;;11.90;69.50;;;;;;5073625;28;19928;-69
2022/04/22 02:56:53;;;;;;;;;;;11.90;69.40;;;;;;5086192;28;19995;-69
2022/04/22 02:59:19;;;;;;;;;;;11.80;69.50;;;;;;5077187;28;19939;-69
2022/04/22 03:01:45;;;;;;;;;;;11.80;69.50;;;;;;5081569;28;20566;-69
2022/04/22 03:04:11;;;;;;;;;;;11.80;69.40;;;;;;5073413;28;19922;-69
2022/04/22 03:06:36;;;;;;;;;;;11.80;69.40;;;;;;5079924;28;19909;-69
2022/04/22 03:09:02;;;;;;;;;;;11.80;69.70;;;;;;5072946;28;19924;-69
2022/04/22 03:11:28;;;;;;;;;;;11.80;69.60;;;;;;5080023;28;19916;-69
2022/04/22 03:13:54;;;;;;;;;;;11.80;69.30;;;;;;5074249;28;19911;-69
2022/04/22 03:16:20;;;;;;;;;;;11.70;69.60;;;;;;5083959;28;20485;-69
2022/04/22 03:18:46;;;;;;;;;;;11.70;69.30;;;;;;5070225;28;19931;-69
2022/04/22 03:21:11;;;;;;;;;;;11.70;69.90;;;;;;5071550;28;20339;-69
2022/04/22 03:23:37;;;;;;;;;;;11.70;69.70;;;;;;5076871;28;19985;-69
2022/04/22 03:26:02;;;;;;;;;;;11.70;69.90;;;;;;5078996;28;20011;-69
2022/04/22 03:28:28;;;;;;;;;;;11.70;70.00;;;;;;5079675;28;19988;-69
2022/04/22 03:30:53;;;;;;;;;;;11.60;70.00;;;;;;5071780;28;20445;-69
2022/04/22 03:33:19;;;;;;;;;;;11.60;70.10;;;;;;5077232;28;19908;-69
2022/04/22 03:35:45;;;;;;;;;;;11.60;69.70;;;;;;5071456;28;19974;-69
2022/04/22 03:38:11;;;;;;;;;;;11.60;70.20;;;;;;5076781;28;20289;-69
2022/04/22 03:40:37;;;;;;;;;;;11.60;70.00;;;;;;5076100;28;19918;-69
2022/04/22 03:43:03;;;;;;;;;;;11.60;70.40;;;;;;5085700;28;19912;-69
2022/04/22 03:45:29;;;;;;;;;;;11.60;70.00;;;;;;5069592;28;19969;-69
2022/04/22 03:47:58;;;;;;;;;;;11.60;70.40;;;;;;5077610;28;19917;-69
2022/04/22 03:50:25;;;;;;;;;;;11.50;70.20;;;;;;5069413;28;19924;-69
2022/04/22 03:52:50;;;;;;;;;;;11.50;70.30;;;;;;5075670;28;19979;-69
2022/04/22 03:55:15;;;;;;;;;;;11.50;70.20;;;;;;5070595;28;20261;-69
2022/04/22 04:00:25;;;;;;;;;;;11.50;70.50;;;;;;5081668;28;19927;-69
2022/04/22 04:02:51;;;;;;;;;;;11.40;70.30;;;;;;5073318;28;20346;-69
2022/04/22 04:05:16;;;;;;;;;;;11.40;70.50;;;;;;5073404;28;20287;-69
2022/04/22 04:07:42;;;;;;;;;;;11.40;70.80;;;;;;5075947;28;19919;-69
2022/04/22 04:15:58;;;;;;;;;;;11.40;70.80;;;;;;5078379;28;20387;-69
2022/04/22 04:18:24;;;;;;;;;;;11.40;70.70;;;;;;5079604;28;19912;-69
2022/04/22 04:23:34;;;;;;;;;;;11.40;70.60;;;;;;5078760;28;19919;-69
2022/04/22 04:25:59;;;;;;;;;;;11.40;70.60;;;;;;5083652;28;20352;-69
2022/04/22 04:28:27;;;;;;;;;;;11.40;70.40;;;;;;5077941;28;19912;-69
2022/04/22 04:30:54;;;;;;;;;;;11.40;70.50;;;;;;5074580;28;19920;-69
2022/04/22 04:33:20;;;;;;;;;;;11.40;70.70;;;;;;5080700;28;19912;-69
2022/04/22 04:35:47;;;;;;;;;;;11.30;70.80;;;;;;5078482;28;19939;-69
2022/04/22 04:38:15;;;;;;;;;;;11.30;70.90;;;;;;5078336;28;20491;-69
2022/04/22 04:40:41;;;;;;;;;;;11.30;70.70;;;;;;5079284;28;20229;-69
2022/04/22 04:43:06;;;;;;;;;;;11.30;71.00;;;;;;5082607;28;19912;-69
2022/04/22 04:45:32;;;;;;;;;;;11.30;71.10;;;;;;5081618;28;20004;-70
2022/04/22 04:47:58;;;;;;;;;;;11.30;71.20;;;;;;5074567;28;20029;-69
2022/04/22 04:50:23;;;;;;;;;;;11.30;71.20;;;;;;5085677;28;20436;-69
2022/04/22 04:52:49;;;;;;;;;;;11.30;71.00;;;;;;5076355;28;19913;-69
2022/04/22 04:55:14;;;;;;;;;;;11.30;71.30;;;;;;5080855;28;19951;-69
2022/04/22 04:57:41;;;;;;;;;;;11.30;71.60;;;;;;5078130;28;20343;-69
2022/04/22 05:00:07;;;;;;;;;;;11.30;71.50;;;;;;5083374;28;20317;-69
2022/04/22 05:02:33;;;;;;;;;;;11.30;71.50;;;;;;5079048;28;19923;-69
2022/04/22 05:04:58;;;;;;;;;;;11.30;71.30;;;;;;5083092;28;19913;-69
2022/04/22 05:07:24;;;;;;;;;;;11.30;71.40;;;;;;5082088;28;19955;-69
2022/04/22 05:09:49;;;;;;;;;;;11.20;71.30;;;;;;5087646;28;19924;-69
2022/04/22 05:12:15;;;;;;;;;;;11.20;70.90;;;;;;5074487;28;19923;-69
2022/04/22 05:14:40;;;;;;;;;;;11.30;70.80;;;;;;5077233;28;19916;-69
2022/04/22 05:17:06;;;;;;;;;;;11.30;70.60;;;;;;5085411;28;19951;-69
2022/04/22 05:19:31;;;;;;;;;;;11.30;70.80;;;;;;5079384;28;19918;-69
2022/04/22 05:21:57;;;;;;;;;;;11.30;70.60;;;;;;5075866;28;19912;-69
2022/04/22 05:24:22;;;;;;;;;;;11.20;70.20;;;;;;5072071;28;20411;-69
2022/04/22 05:26:48;;;;;;;;;;;11.30;70.60;;;;;;5085603;28;19919;-69
2022/04/22 05:34:42;;;;;;;;;;;11.30;70.20;;;;;;5073817;28;19923;-69
2022/04/22 05:37:08;;;;;;;;;;;11.30;70.20;;;;;;5083375;28;19913;-69
2022/04/22 05:39:33;;;;;;;;;;;11.30;70.20;;;;;;5077059;28;19935;-69
2022/04/22 05:42:00;;;;;;;;;;;11.30;70.20;;;;;;5081270;28;20038;-69
2022/04/22 05:44:26;;;;;;;;;;;11.30;70.30;;;;;;5085031;28;19922;-69
2022/04/22 05:46:51;;;;;;;;;;;11.30;70.20;;;;;;5090236;28;20245;-69
2022/04/22 05:49:18;;;;;;;;;;;11.30;70.70;;;;;;5075789;28;19931;-69
2022/04/22 05:51:43;;;;;;;;;;;11.30;70.70;;;;;;5083598;28;19961;-69
2022/04/22 05:54:09;;;;;;;;;;;11.40;70.70;;;;;;5083980;28;19912;-69
2022/04/22 05:56:35;;;;;;;;;;;11.40;70.20;;;;;;5073798;28;20403;-69
2022/04/22 05:59:02;;;;;;;;;;;11.40;70.10;;;;;;5080921;28;20024;-69
2022/04/22 06:01:27;;;;;;;;;;;11.40;69.90;;;;;;5082768;28;19922;-69
2022/04/22 06:03:53;;;;;;;;;;;11.40;70.10;;;;;;5074415;28;19916;-69
2022/04/22 06:06:18;;;;;;;;;;;11.40;70.10;;;;;;5076172;28;20688;-69
2022/04/22 06:11:28;;;;;;;;;;;11.50;70.20;;;;;;5078228;28;20307;-69
2022/04/22 06:13:54;;;;;;;;;;;11.50;70.10;;;;;;5078929;28;19920;-69
2022/04/22 06:16:20;;;;;;;;;;;11.50;69.90;;;;;;5071042;28;20640;-69
2022/04/22 06:18:45;;;;;;;;;;;11.50;70.00;;;;;;5077638;28;19911;-69
2022/04/22 06:21:10;;;;;;;;;;;11.50;70.00;;;;;;5078077;28;19912;-69
2022/04/22 06:23:36;;;;;;;;;;;11.50;70.40;;;;;;5086270;28;19991;-69
2022/04/22 06:26:01;;;;;;;;;;;11.50;70.00;;;;;;5076935;28;19953;-69
2022/04/22 06:28:27;;;;;;;;;;;11.60;70.00;;;;;;5085615;28;19925;-69
2022/04/22 06:30:53;;;;;;;;;;;11.60;69.90;;;;;;5072225;28;19990;-69
2022/04/22 06:33:19;;;;;;;;;;;11.60;70.00;;;;;;5079617;28;19954;-69
2022/04/22 06:35:44;;;;;;;;;;;11.60;69.90;;;;;;5081508;28;19930;-69
2022/04/22 06:38:12;;;;;;;;;;;11.70;70.00;;;;;;5081923;28;20643;-69
2022/04/22 06:46:06;;;;;;;;;;;11.70;69.70;;;;;;5074653;28;20025;-69
2022/04/22 06:48:35;;;;;;;;;;;11.80;69.90;;;;;;5081947;28;19962;-69
2022/04/22 06:51:01;;;;;;;;;;;11.80;69.60;;;;;;5080383;28;19921;-69
2022/04/22 06:53:27;;;;;;;;;;;11.80;69.60;;;;;;5079594;28;20539;-69
2022/04/22 06:55:53;;;;;;;;;;;11.90;69.50;;;;;;5077045;28;19912;-69
2022/04/22 06:58:20;;;;;;;;;;;11.90;69.50;;;;;;5070962;28;19955;-69
2022/04/22 07:00:46;;;;;;;;;;;11.90;69.50;;;;;;5080073;28;19917;-69
2022/04/22 07:03:12;;;;;;;;;;;11.90;69.50;;;;;;5076972;28;20344;-69
2022/04/22 07:05:38;;;;;;;;;;;11.90;69.70;;;;;;5072956;28;19948;-69
2022/04/22 07:08:06;;;;;;;;;;;12.00;69.60;;;;;;5072880;28;20230;-69
2022/04/22 07:10:32;;;;;;;;;;;12.00;69.50;;;;;;5083344;28;19923;-69
2022/04/22 07:12:58;;;;;;;;;;;12.00;69.60;;;;;;5075911;28;19912;-69
2022/04/22 07:15:24;;;;;;;;;;;12.00;69.40;;;;;;5076328;28;20079;-69
2022/04/22 07:17:50;;;;;;;;;;;12.10;69.80;;;;;;5074306;28;19923;-69
2022/04/22 07:20:16;;;;;;;;;;;12.10;69.50;;;;;;5084878;28;19912;-69
2022/04/22 07:22:42;;;;;;;;;;;12.10;69.70;;;;;;5070148;28;19916;-69
2022/04/22 07:25:09;;;;;;;;;;;12.20;69.70;;;;;;5076668;28;19993;-69
2022/04/22 07:27:36;;;;;;;;;;;12.20;69.60;;;;;;5080322;28;20605;-69
2022/04/22 07:30:03;;;;;;;;;;;12.30;69.50;;;;;;5077266;28;19924;-69
2022/04/22 07:32:29;;;;;;;;;;;12.30;69.50;;;;;;5073106;28;20550;-69
2022/04/22 07:34:55;;;;;;;;;;;12.30;69.50;;;;;;5072253;28;19917;-69
2022/04/22 07:37:21;;;;;;;;;;;12.40;69.80;;;;;;5083905;28;19916;-69
2022/04/22 07:39:47;;;;;;;;;;;12.40;69.10;;;;;;5074441;28;19935;-68
2022/04/22 07:42:17;;;;;;;;;;;12.50;69.00;;;;;;5072554;28;20352;-69
2022/04/22 07:47:31;;;;;;;;;;;12.50;68.90;;;;;;5083423;28;19961;-68
2022/04/22 07:49:57;;;;;;;;;;;12.50;69.00;;;;;;5072699;28;19920;-69
2022/04/22 07:52:23;;;;;;;;;;;12.50;69.20;;;;;;5081627;28;20442;-69
2022/04/22 07:54:49;;;;;;;;;;;12.60;69.40;;;;;;5077788;28;19912;-68
2022/04/22 07:57:14;;;;;;;;;;;12.50;69.00;;;;;;5086208;28;19916;-68
2022/04/22 07:59:41;;;;;;;;;;;12.60;69.20;;;;;;5073329;28;19952;-68
2022/04/22 08:02:06;;;;;;;;;;;12.60;69.10;;;;;;5076994;28;19924;-69
2022/04/22 08:04:32;;;;;;;;;;;12.60;69.10;;;;;;5079175;28;20306;-68
2022/04/22 08:06:58;;;;;;;;;;;12.70;68.80;;;;;;5071300;28;19917;-69
2022/04/22 08:09:23;;;;;;;;;;;12.80;68.70;;;;;;5081509;28;20340;-69
2022/04/22 08:11:49;;;;;;;;;;;12.90;69.00;;;;;;5078486;28;19946;-68
2022/04/22 08:14:14;;;;;;;;;;;12.90;68.80;;;;;;5085874;28;19978;-69
2022/04/22 08:16:41;;;;;;;;;;;13.00;68.50;;;;;;5071761;28;19978;-68
2022/04/22 08:19:06;;;;;;;;;;;13.00;68.30;;;;;;5087024;28;20372;-68
2022/04/22 08:21:34;;;;;;;;;;;13.10;68.10;;;;;;5083432;28;19920;-69
2022/04/22 08:24:00;;;;;;;;;;;13.20;68.00;;;;;;5085517;28;19934;-69
2022/04/22 08:26:26;;;;;;;;;;;13.20;68.60;;;;;;5075926;28;19927;-69
2022/04/22 08:28:51;;;;;;;;;;;13.30;67.90;;;;;;5087836;28;19908;-68
2022/04/22 08:31:20;;;;;;;;;;;13.20;68.20;;;;;;5084946;28;19916;-69
2022/04/22 08:33:47;;;;;;;;;;;13.30;67.90;;;;;;5081932;28;19912;-69
2022/04/22 08:36:13;;;;;;;;;;;13.30;67.90;;;;;;5079489;28;19914;-69
2022/04/22 08:38:38;;;;;;;;;;;13.40;67.80;;;;;;5088426;28;19916;-69
2022/04/22 08:41:04;;;;;;;;;;;13.50;67.70;;;;;;5075825;28;19923;-69
2022/04/22 08:43:29;;;;;;;;;;;13.50;67.80;;;;;;5079370;28;19923;-68
2022/04/22 08:45:55;;;;;;;;;;;13.50;67.60;;;;;;5080888;28;19919;-68
2022/04/22 08:51:07;;;;;;;;;;;13.60;67.70;;;;;;5075144;28;20547;-68
2022/04/22 08:53:33;;;;;;;;;;;13.70;67.30;;;;;;5075881;28;19913;-68
2022/04/22 08:56:01;;;;;;;;;;;13.70;67.50;;;;;;5086757;28;20018;-68
2022/04/22 08:58:27;;;;;;;;;;;13.70;67.60;;;;;;5080232;28;19908;-68
2022/04/22 09:00:54;;;;;;;;;;;13.70;67.70;;;;;;5084972;28;19917;-68
2022/04/22 09:03:20;;;;;;;;;;;13.70;67.20;;;;;;5076178;28;19912;-68
2022/04/22 09:05:46;;;;;;;;;;;13.80;67.30;;;;;;5089083;28;19924;-69
2022/04/22 09:08:11;;;;;;;;;;;13.80;68.00;;;;;;5074540;28;19912;-68
2022/04/22 09:10:38;;;;;;;;;;;13.90;67.00;;;;;;5079181;28;19920;-68
2022/04/22 09:13:09;;;;;;;;;;;13.90;67.20;;;;;;5078369;28;19920;-68
2022/04/22 09:15:35;;;;;;;;;;;13.90;67.10;;;;;;5087421;28;20062;-68
2022/04/22 09:18:11;;;;;;;;;;;13.90;67.00;;;;;;5070785;28;20360;-68
2022/04/22 09:20:37;;;;;;;;;;;14.00;66.90;;;;;;5084787;28;20802;-68
2022/04/22 09:23:19;;;;;;;;;;;14.00;66.90;;;;;;5079846;28;19913;-68
2022/04/22 09:25:45;;;;;;;;;;;14.00;66.70;;;;;;5079574;28;20038;-68
2022/04/22 09:28:11;;;;;;;;;;;14.10;66.80;;;;;;5080513;28;19930;-68
2022/04/22 09:30:36;;;;;;;;;;;14.20;66.90;;;;;;5081072;28;19929;-69
2022/04/22 09:33:02;;;;;;;;;;;14.20;67.00;;;;;;5071743;28;19931;-68
2022/04/22 09:35:29;;;;;;;;;;;14.20;66.60;;;;;;5076045;28;20474;-68
2022/04/22 09:43:25;;;;;;;;;;;14.20;66.50;;;;;;5076992;28;20374;-68
2022/04/22 09:45:51;;;;;;;;;;;14.30;66.50;;;;;;5082225;28;19916;-68
2022/04/22 09:48:26;;;;;;;;;;;14.30;66.60;;;;;;5090401;28;20018;-68
2022/04/22 09:50:52;;;;;;;;;;;14.30;66.60;;;;;;5080224;28;19920;-68
2022/04/22 09:53:27;;;;;;;;;;;14.30;66.60;;;;;;5076593;28;19919;-68
2022/04/22 09:55:53;;;;;;;;;;;14.40;66.60;;;;;;5074470;28;19916;-68
2022/04/22 09:58:22;;;;;;;;;;;14.40;66.30;;;;;;5084551;28;20401;-68
2022/04/22 10:00:52;;;;;;;;;;;14.50;66.20;;;;;;5072768;28;19936;-68
2022/04/22 10:03:18;;;;;;;;;;;14.50;66.30;;;;;;5074855;28;19943;-68
2022/04/22 10:05:45;;;;;;;;;;;14.50;66.30;;;;;;5083386;28;19951;-68
2022/04/22 10:08:11;;;;;;;;;;;14.50;66.40;;;;;;5073021;28;20358;-68
2022/04/22 10:10:38;;;;;;;;;;;14.50;66.30;;;;;;5072015;28;19930;-69
2022/04/22 10:13:04;;;;;;;;;;;14.50;66.60;;;;;;5078745;28;19935;-68
2022/04/22 10:15:31;;;;;;;;;;;14.50;66.60;;;;;;5078210;28;20329;-68
2022/04/22 10:17:57;;;;;;;;;;;14.40;66.50;;;;;;5084191;28;19996;-68
2022/04/22 10:20:24;;;;;;;;;;;14.50;66.50;;;;;;5077276;28;19995;-69
2022/04/22 10:22:49;;;;;;;;;;;14.60;66.50;;;;;;5080414;28;19908;-68
2022/04/22 10:25:15;;;;;;;;;;;14.60;66.30;;;;;;5073178;28;19926;-68
2022/04/22 10:27:42;;;;;;;;;;;14.70;66.30;;;;;;5080963;28;20032;-68
2022/04/22 10:30:09;;;;;;;;;;;14.70;66.30;;;;;;5076970;28;19920;-68
2022/04/22 10:32:36;;;;;;;;;;;14.70;66.10;;;;;;5080509;28;19966;-68
2022/04/22 10:35:03;;;;;;;;;;;14.80;66.10;;;;;;5082244;28;20003;-68
2022/04/22 10:37:28;;;;;;;;;;;14.80;65.80;;;;;;5076818;28;20262;-68
2022/04/22 10:39:55;;;;;;;;;;;14.80;65.70;;;;;;5082077;28;19920;-68
2022/04/22 10:42:41;;;;;;;;;;;14.90;65.70;;;;;;5075184;28;19922;-68
2022/04/22 10:47:53;;;;;;;;;;;14.90;65.60;;;;;;5079049;28;19972;-68
2022/04/22 10:50:28;;;;;;;;;;;14.90;65.70;;;;;;5084112;28;20125;-68
2022/04/22 10:53:01;;;;;;;;;;;14.90;65.80;;;;;;5107373;27;20042;-68
2022/04/22 10:55:28;;;;;;;;;;;14.90;66.00;;;;;;5079016;28;20032;-68
2022/04/22 10:58:13;;;;;;;;;;;14.90;66.00;;;;;;5079913;28;19916;-68
2022/04/22 11:00:46;;;;;;;;;;;14.90;66.00;;;;;;5060448;28;19912;-68
2022/04/22 11:03:16;;;;;;;;;;;14.90;66.10;;;;;;5075036;28;19943;-68
2022/04/22 11:05:46;;;;;;;;;;;14.90;66.10;;;;;;5083927;28;19974;-68
2022/04/22 11:08:17;;;;;;;;;;;14.90;66.30;;;;;;5077479;28;19916;-68
2022/04/22 11:10:45;;;;;;;;;;;14.90;66.50;;;;;;5079025;28;19923;-68
2022/04/22 11:13:29;;;;;;;;;;;14.90;66.30;;;;;;5073033;28;20416;-68
2022/04/22 11:16:06;;;;;;;;;;;15.00;66.30;;;;;;5094734;28;20103;-68
2022/04/22 11:18:33;;;;;;;;;;;15.00;66.20;;;;;;5067431;28;20426;-68
2022/04/22 11:20:58;;;;;;;;;;;15.10;65.80;;;;;;5080575;28;19912;-68
2022/04/22 11:23:33;;;;;;;;;;;15.10;65.70;;;;;;5078758;28;20273;-68
2022/04/22 11:25:58;;;;;;;;;;;15.20;65.90;;;;;;5073375;28;19913;-68
2022/04/22 11:28:24;;;;;;;;;;;15.30;65.50;;;;;;5069721;28;20361;-68
2022/04/22 11:30:50;;;;;;;;;;;15.40;65.40;;;;;;5080175;28;19916;-68
2022/04/22 11:33:19;;;;;;;;;;;15.50;65.40;;;;;;5078113;28;19912;-68
2022/04/22 11:35:47;;;;;;;;;;;15.50;65.50;;;;;;5069472;28;19917;-68
2022/04/22 11:38:13;;;;;;;;;;;15.70;65.20;;;;;;5077226;28;19919;-68
2022/04/22 11:40:39;;;;;;;;;;;15.70;65.10;;;;;;5077097;28;19916;-68
2022/04/22 11:43:09;;;;;;;;;;;15.70;65.00;;;;;;5078331;28;20024;-68
2022/04/22 11:45:35;;;;;;;;;;;15.80;65.20;;;;;;5076262;28;19928;-68
2022/04/22 11:48:08;;;;;;;;;;;15.80;65.20;;;;;;5077379;28;19916;-68
2022/04/22 11:50:40;;;;;;;;;;;15.80;64.90;;;;;;5084105;28;19919;-71
2022/04/22 11:53:12;;;;;;;;;;;15.80;65.00;;;;;;5090800;27;21040;-71
2022/04/22 11:55:38;;;;;;;;;;;15.90;65.20;;;;;;5075960;28;19923;-71
2022/04/22 11:58:04;;;;;;;;;;;15.90;65.20;;;;;;5078695;28;20284;-71
2022/04/22 12:06:12;;;;;;;;;;;16.00;65.10;;;;;;5067320;28;19919;-71
2022/04/22 12:08:49;;;;;;;;;;;16.10;65.00;;;;;;5076317;28;20615;-71
2022/04/22 12:11:18;;;;;;;;;;;16.30;64.50;;;;;;5076995;28;19938;-71
2022/04/22 12:13:50;;;;;;;;;;;16.50;64.30;;;;;;5076231;28;19909;-71
2022/04/22 12:16:19;;;;;;;;;;;16.50;64.00;;;;;;5076280;28;19920;-71
2022/04/22 12:18:46;;;;;;;;;;;16.50;64.00;;;;;;5083054;28;19912;-71
2022/04/22 12:21:12;;;;;;;;;;;16.60;64.40;;;;;;5072598;28;19916;-71
2022/04/22 12:23:39;;;;;;;;;;;16.70;64.00;;;;;;5082567;28;19907;-71
2022/04/22 12:26:05;;;;;;;;;;;16.90;63.70;;;;;;5075416;28;20329;-71
2022/04/22 12:28:31;;;;;;;;;;;17.10;63.20;;;;;;5083428;28;19958;-71
2022/04/22 12:30:57;;;;;;;;;;;17.10;63.10;;;;;;5071352;28;20343;-71
2022/04/22 12:33:23;;;;;;;;;;;17.30;63.20;;;;;;5087048;28;19930;-71
2022/04/22 12:35:49;;;;;;;;;;;17.30;62.70;;;;;;5069135;28;20594;-71
2022/04/22 12:38:15;;;;;;;;;;;17.40;62.60;;;;;;5073853;28;19920;-71
2022/04/22 12:40:45;;;;;;;;;;;17.40;63.00;;;;;;5075161;28;19919;-71
2022/04/22 12:43:27;;;;;;;;;;;17.50;62.70;;;;;;5087720;28;19915;-71
2022/04/22 12:54:19;;;;;;;;;;;17.90;62.10;;;;;;5077787;28;20019;-71
2022/04/22 12:56:54;;;;;;;;;;;17.90;62.00;;;;;;5076872;28;20086;-71
2022/04/22 12:59:20;;;;;;;;;;;17.90;62.30;;;;;;5086968;28;20605;-71
2022/04/22 13:01:48;;;;;;;;;;;17.90;62.50;;;;;;5081931;28;19913;-71
2022/04/22 13:04:22;;;;;;;;;;;17.80;63.00;;;;;;5086447;28;20277;-71
2022/04/22 13:06:47;;;;;;;;;;;17.80;63.50;;;;;;5075025;28;19912;-71
2022/04/22 13:09:14;;;;;;;;;;;17.80;63.30;;;;;;5090796;28;19919;-71
2022/04/22 13:11:40;;;;;;;;;;;17.90;64.30;;;;;;5071981;28;19983;-71
2022/04/22 13:14:06;;;;;;;;;;;17.90;63.10;;;;;;5082640;28;20392;-71
2022/04/22 13:16:32;;;;;;;;;;;18.00;62.70;;;;;;5084003;28;19999;-71
2022/04/22 13:18:58;;;;;;;;;;;18.10;62.80;;;;;;5080990;28;20007;-71
2022/04/22 13:21:23;;;;;;;;;;;18.20;62.70;;;;;;5073479;28;19921;-71
2022/04/22 13:23:50;;;;;;;;;;;18.20;62.60;;;;;;5075535;28;20692;-71
2022/04/22 13:26:16;;;;;;;;;;;18.30;62.60;;;;;;5085158;28;19912;-71
2022/04/22 13:28:41;;;;;;;;;;;18.40;62.20;;;;;;5075881;28;19969;-71
2022/04/22 13:31:07;;;;;;;;;;;18.40;62.50;;;;;;5075482;28;19916;-71
2022/04/22 13:33:33;;;;;;;;;;;18.50;62.20;;;;;;5082828;28;19928;-71
2022/04/22 13:36:01;;;;;;;;;;;18.50;62.20;;;;;;5083688;28;19913;-71
2022/04/22 13:38:27;;;;;;;;;;;18.50;62.50;;;;;;5068541;28;20272;-71
2022/04/22 13:40:53;;;;;;;;;;;18.60;62.50;;;;;;5081553;28;20635;-71
2022/04/22 13:43:18;;;;;;;;;;;18.60;62.40;;;;;;5080470;28;19933;-71
2022/04/22 13:53:56;;;;;;;;;;;18.80;62.60;;;;;;5068278;28;19942;-70
2022/04/22 13:56:22;;;;;;;;;;;18.80;63.00;;;;;;5080843;28;20385;-70
2022/04/22 13:58:47;;;;;;;;;;;18.90;62.70;;;;;;5075337;28;19923;-70
2022/04/22 14:01:13;;;;;;;;;;;18.90;63.40;;;;;;5090240;28;20272;-70
2022/04/22 14:03:38;;;;;;;;;;;18.90;62.60;;;;;;5073916;28;19912;-70
2022/04/22 14:06:04;;;;;;;;;;;19.00;61.70;;;;;;5076693;28;19916;-69
2022/04/22 14:08:29;;;;;;;;;;;19.00;62.20;;;;;;5079309;28;20077;-70
2022/04/22 14:10:55;;;;;;;;;;;19.10;61.80;;;;;;5078360;28;19976;-70
2022/04/22 14:13:20;;;;;;;;;;;19.20;61.90;;;;;;5081235;28;19920;-70
2022/04/22 14:15:46;;;;;;;;;;;19.30;61.50;;;;;;5079854;28;19919;-70
2022/04/22 14:18:12;;;;;;;;;;;19.40;60.90;;;;;;5082697;28;20827;-70
2022/04/22 14:20:38;;;;;;;;;;;19.40;60.70;;;;;;5070268;28;19912;-70
2022/04/22 14:23:03;;;;;;;;;;;19.50;60.60;;;;;;5080557;28;20003;-70
2022/04/22 14:25:29;;;;;;;;;;;19.50;60.20;;;;;;5080094;28;19920;-70
2022/04/22 14:27:55;;;;;;;;;;;19.50;60.10;;;;;;5084786;28;19920;-70
2022/04/22 14:30:20;;;;;;;;;;;19.60;60.00;;;;;;5070952;28;19923;-70
2022/04/22 14:32:46;;;;;;;;;;;19.70;59.90;;;;;;5077005;28;20574;-70
2022/04/22 14:35:12;;;;;;;;;;;19.70;59.40;;;;;;5081315;28;19919;-70
2022/04/22 14:37:37;;;;;;;;;;;19.70;59.60;;;;;;5077225;28;20006;-70
2022/04/22 14:40:03;;;;;;;;;;;19.80;59.70;;;;;;5072311;28;19995;-70
2022/04/22 14:42:29;;;;;;;;;;;19.90;59.30;;;;;;5078693;28;19908;-70
2022/04/22 14:44:55;;;;;;;;;;;20.10;59.10;;;;;;5083180;28;19927;-70
2022/04/22 14:47:21;;;;;;;;;;;20.20;58.90;;;;;;5071596;28;19912;-70
2022/04/22 14:49:47;;;;;;;;;;;20.30;58.90;;;;;;5077302;28;20505;-70
2022/04/22 14:52:12;;;;;;;;;;;20.40;58.60;;;;;;5076269;28;19931;-70
2022/04/22 14:54:38;;;;;;;;;;;20.50;58.20;;;;;;5078834;28;19912;-70
2022/04/22 14:57:04;;;;;;;;;;;20.70;58.30;;;;;;5071023;28;20006;-70
2022/04/22 14:59:30;;;;;;;;;;;20.70;58.00;;;;;;5084282;28;19916;-70
2022/04/22 15:01:55;;;;;;;;;;;20.90;57.80;;;;;;5073072;28;20361;-72
2022/04/22 15:04:21;;;;;;;;;;;21.00;57.40;;;;;;5079880;28;19912;-70
2022/04/22 15:06:47;;;;;;;;;;;21.20;57.40;;;;;;5070979;28;19916;-70
2022/04/22 15:09:16;;;;;;;;;;;21.20;57.00;;;;;;5083477;28;19908;-70
2022/04/22 15:11:44;;;;;;;;;;;21.30;56.90;;;;;;5076262;28;19924;-70
2022/04/22 15:14:10;;;;;;;;;;;21.20;57.00;;;;;;5076971;28;19960;-70
2022/04/22 15:16:36;;;;;;;;;;;21.10;57.00;;;;;;5071873;28;19972;-70
2022/04/22 15:24:30;;;;;;;;;;;21.10;57.50;;;;;;5080043;28;20648;-70
2022/04/22 15:26:57;;;;;;;;;;;21.10;57.10;;;;;;5078541;28;19948;-71
2022/04/22 15:29:23;;;;;;;;;;;21.10;56.80;;;;;;5076357;28;20015;-71
2022/04/22 15:31:49;;;;;;;;;;;21.30;57.10;;;;;;5076830;28;20412;-71